Time;durP1;ratioP1;P1;durP2;ratioP2;P2;SDS_P1;SDS_P2;PMS_P1;PMS_P2;Temp;Humidity;BMP_temperature;BMP_pressure;BME280_temperature;BME280_humidity;BME280_pressure;Samples;Min_cycle;Max_cycle;Signal;HPM_P1;HPM_P2
2023/07/22 00:01:34;;;;;;;5.43;4.63;;;11.40;1.00;;;;;;5035598;28;20172;-44
2023/07/22 00:04:00;;;;;;;6.00;4.77;;;11.40;1.00;;;;;;5053763;28;20169;-44
2023/07/22 00:06:26;;;;;;;5.80;4.70;;;11.40;1.00;;;;;;5053364;28;20231;-43
2023/07/22 00:08:53;;;;;;;5.93;4.80;;;11.30;1.00;;;;;;5035774;28;20176;-45
2023/07/22 00:11:19;;;;;;;5.97;4.60;;;11.30;1.00;;;;;;5053560;28;20274;-44
2023/07/22 00:13:45;;;;;;;5.23;4.20;;;11.30;1.00;;;;;;5035692;28;20249;-43
2023/07/22 00:16:11;;;;;;;5.30;4.50;;;11.20;1.00;;;;;;5053347;28;20676;-43
2023/07/22 00:18:37;;;;;;;8.03;4.60;;;11.20;1.00;;;;;;5053451;28;20180;-43
2023/07/22 00:21:02;;;;;;;5.40;4.23;;;11.20;1.00;;;;;;5039754;28;20263;-43
2023/07/22 00:23:28;;;;;;;5.97;4.60;;;11.20;1.00;;;;;;5057330;28;20176;-43
2023/07/22 00:25:54;;;;;;;6.60;4.67;;;11.10;1.00;;;;;;5057726;28;20192;-43
2023/07/22 00:28:20;;;;;;;8.50;4.90;;;11.10;1.00;;;;;;5057469;28;20250;-46
2023/07/22 00:30:46;;;;;;;6.27;4.77;;;11.10;1.00;;;;;;5039442;28;20249;-45
2023/07/22 00:33:13;;;;;;;6.47;4.37;;;11.00;1.00;;;;;;5057752;28;20222;-43
2023/07/22 00:35:39;;;;;;;7.30;4.83;;;11.00;1.00;;;;;;5059508;28;20204;-43
2023/07/22 00:38:04;;;;;;;6.10;4.70;;;11.00;1.00;;;;;;5059131;28;20663;-44
2023/07/22 00:40:31;;;;;;;5.03;4.40;;;10.90;1.00;;;;;;5057632;28;20168;-45
2023/07/22 00:42:59;;;;;;;8.70;4.97;;;10.90;1.00;;;;;;5057335;28;20179;-44
2023/07/22 00:45:24;;;;;;;5.63;4.43;;;10.90;1.00;;;;;;5039117;28;20204;-44
2023/07/22 00:47:50;;;;;;;6.83;5.10;;;10.90;1.00;;;;;;5057063;28;20199;-43
2023/07/22 00:50:16;;;;;;;6.40;4.77;;;10.80;1.00;;;;;;5039094;28;20184;-44
2023/07/22 00:52:42;;;;;;;7.83;4.53;;;10.80;1.00;;;;;;5057187;28;20176;-44
2023/07/22 00:55:14;;;;;;;6.40;4.53;;;10.80;1.00;;;;;;5056787;28;20211;-41
2023/07/22 01:01:01;;;;;;;6.00;4.87;;;10.70;1.00;;;;;;5104784;22;20330;-90
2023/07/22 01:03:28;;;;;;;6.43;4.63;;;10.60;1.00;;;;;;5122246;28;20205;-90
2023/07/22 01:05:54;;;;;;;8.40;5.10;;;10.90;1.00;;;;;;5104961;28;20193;-91
2023/07/22 01:08:20;;;;;;;6.27;5.13;;;10.60;1.00;;;;;;5121312;28;20204;-90
2023/07/22 01:10:46;;;;;;;6.20;4.90;;;11.20;1.00;;;;;;5104115;28;20178;-91
2023/07/22 01:13:11;;;;;;;6.03;4.67;;;11.30;1.00;;;;;;5103918;28;20635;-89
2023/07/22 01:15:38;;;;;;;5.77;4.33;;;10.50;1.00;;;;;;5104502;28;20223;-90
2023/07/22 01:18:04;;;;;;;6.53;4.73;;;10.50;1.00;;;;;;5122146;28;20210;-90
2023/07/22 01:20:30;;;;;;;8.43;4.70;;;10.50;1.00;;;;;;5122601;28;20182;-91
2023/07/22 01:22:58;;;;;;;5.53;4.67;;;10.60;1.00;;;;;;5122481;28;20197;-92
2023/07/22 01:25:24;;;;;;;7.07;4.80;;;10.30;1.00;;;;;;5122217;28;20191;-90
2023/07/22 01:27:53;;;;;;;6.77;4.47;;;10.20;1.00;;;;;;5105358;28;20202;-90
2023/07/22 01:30:19;;;;;;;7.30;4.43;;;10.60;1.00;;;;;;5102316;28;20194;-89
2023/07/22 01:32:47;;;;;;;5.87;4.47;;;10.80;1.00;;;;;;5099032;28;20193;-90
2023/07/22 01:35:13;;;;;;;7.23;4.50;;;10.40;1.00;;;;;;5101076;28;20732;-89
2023/07/22 01:37:39;;;;;;;6.33;5.23;;;10.40;1.00;;;;;;5123709;28;20225;-85
2023/07/22 01:40:11;;;;;;;8.27;5.20;;;9.90;1.00;;;;;;5142298;28;20174;-88
2023/07/22 01:42:38;;;;;;;7.87;5.27;;;10.30;1.00;;;;;;5142446;28;20180;-90
2023/07/22 01:45:07;;;;;;;7.30;5.23;;;10.60;1.00;;;;;;5104732;28;20178;-91
2023/07/22 01:47:34;;;;;;;6.07;5.00;;;10.30;1.00;;;;;;5101382;28;20178;-88
2023/07/22 01:50:00;;;;;;;6.43;5.20;;;9.90;1.00;;;;;;5101962;28;20183;-89
2023/07/22 01:52:26;;;;;;;7.80;4.93;;;10.60;1.00;;;;;;5118960;28;20646;-89
2023/07/22 01:54:51;;;;;;;13.30;5.00;;;10.50;1.00;;;;;;5101309;28;20192;-90
2023/07/22 01:57:17;;;;;;;6.03;5.03;;;11.40;1.00;;;;;;5102560;28;20696;-87
2023/07/22 01:59:43;;;;;;;7.83;5.17;;;10.50;1.00;;;;;;5100434;28;20186;-90
2023/07/22 02:02:08;;;;;;;6.63;4.93;;;10.20;1.00;;;;;;5101416;28;20182;-89
2023/07/22 02:04:37;;;;;;;7.30;4.90;;;10.50;1.00;;;;;;5101832;28;20177;-91
2023/07/22 02:07:03;;;;;;;7.20;5.23;;;10.50;1.00;;;;;;5084979;28;20186;-89
2023/07/22 02:09:29;;;;;;;7.40;5.37;;;10.30;1.00;;;;;;5124561;28;20201;-88
2023/07/22 02:11:55;;;;;;;6.93;5.40;;;10.40;1.00;;;;;;5119602;28;20533;-89
2023/07/22 02:14:20;;;;;;;7.20;5.07;;;11.60;1.00;;;;;;5100854;28;20174;-89
2023/07/22 02:16:46;;;;;;;7.60;5.40;;;11.40;1.00;;;;;;5100527;28;20233;-88
2023/07/22 02:19:11;;;;;;;6.10;4.70;;;11.60;1.00;;;;;;5101384;28;20619;-89
2023/07/22 02:21:37;;;;;;;6.03;4.87;;;10.50;1.00;;;;;;5100632;28;20186;-89
2023/07/22 02:24:02;;;;;;;5.50;4.60;;;10.90;1.00;;;;;;5100487;28;20181;-89
2023/07/22 02:26:28;;;;;;;5.87;4.90;;;10.10;1.00;;;;;;5100488;28;20239;-89
2023/07/22 02:28:55;;;;;;;8.10;5.17;;;10.30;1.00;;;;;;5101527;28;20217;-89
2023/07/22 02:31:22;;;;;;;7.97;5.37;;;10.90;1.00;;;;;;5100164;28;20247;-90
2023/07/22 02:33:48;;;;;;;6.43;4.73;;;10.20;1.00;;;;;;5100569;28;20217;-90
2023/07/22 02:36:14;;;;;;;7.33;4.60;;;10.70;1.00;;;;;;5101063;28;20315;-89
2023/07/22 02:38:39;;;;;;;6.60;4.97;;;10.10;1.00;;;;;;5100736;28;20207;-91
2023/07/22 02:41:07;;;;;;;6.30;4.70;;;10.10;1.00;;;;;;5119619;28;20240;-88
2023/07/22 02:43:36;;;;;;;9.07;5.20;;;10.40;1.00;;;;;;5120962;28;20269;-91
2023/07/22 02:46:22;;;;;;;8.77;5.50;;;10.10;1.00;;;;;;5119715;28;20189;-90
2023/07/22 02:48:48;;;;;;;8.60;5.93;;;10.10;1.00;;;;;;5120859;28;20317;-91
2023/07/22 02:51:14;;;;;;;7.87;5.17;;;10.10;1.00;;;;;;5101699;28;20174;-89
2023/07/22 02:53:41;;;;;;;6.57;5.00;;;10.10;1.00;;;;;;5103317;28;20633;-89
2023/07/22 02:56:07;;;;;;;6.50;4.87;;;10.10;1.00;;;;;;5101146;28;20181;-89
2023/07/22 02:58:34;;;;;;;6.73;5.10;;;10.00;1.00;;;;;;5104075;28;20298;-89
2023/07/22 03:01:00;;;;;;;6.63;4.80;;;10.10;1.00;;;;;;5130651;28;20178;-89
2023/07/22 03:03:25;;;;;;;6.47;4.97;;;10.20;1.00;;;;;;5122451;28;20193;-89
2023/07/22 03:05:52;;;;;;;6.83;5.20;;;10.00;1.00;;;;;;5122895;28;20169;-85
2023/07/22 03:08:18;;;;;;;8.10;5.17;;;10.20;1.00;;;;;;5140836;28;20216;-79
2023/07/22 03:10:51;;;;;;;8.00;5.17;;;10.90;1.00;;;;;;5118356;28;20216;-89
2023/07/22 03:13:17;;;;;;;8.17;5.53;;;10.30;1.00;;;;;;5082963;28;20284;-90
2023/07/22 03:15:44;;;;;;;7.37;5.10;;;9.80;1.00;;;;;;5099056;28;20192;-89
2023/07/22 03:18:11;;;;;;;8.13;5.20;;;10.10;1.00;;;;;;5116868;28;20213;-89
2023/07/22 03:20:37;;;;;;;7.13;5.43;;;10.20;1.00;;;;;;5116733;28;20210;-90
2023/07/22 03:23:04;;;;;;;7.13;5.10;;;10.00;1.00;;;;;;5098091;28;20239;-89
2023/07/22 03:25:32;;;;;;;6.43;5.13;;;10.40;1.00;;;;;;5098720;28;20217;-88
2023/07/22 03:28:01;;;;;;;7.53;5.13;;;10.30;1.00;;;;;;5098227;28;20220;-89
2023/07/22 03:30:27;;;;;;;7.23;5.40;;;10.70;1.00;;;;;;5098046;28;20192;-90
2023/07/22 03:32:53;;;;;;;7.20;5.13;;;10.30;1.00;;;;;;5098952;28;20197;-89
2023/07/22 03:35:18;;;;;;;6.70;5.37;;;9.90;1.00;;;;;;5098144;28;20664;-88
2023/07/22 03:37:47;;;;;;;9.87;5.80;;;10.40;1.00;;;;;;5097962;28;20692;-90
2023/07/22 03:40:19;;;;;;;9.30;5.50;;;10.70;1.00;;;;;;5098047;28;20267;-88
2023/07/22 03:42:52;;;;;;;6.40;5.40;;;10.50;1.00;;;;;;5099866;28;20185;-89
2023/07/22 03:45:18;;;;;;;8.47;6.27;;;10.60;1.00;;;;;;5101026;28;20196;-89
2023/07/22 03:47:47;;;;;;;7.73;5.70;;;10.60;1.00;;;;;;5100824;28;20212;-89
2023/07/22 03:50:13;;;;;;;8.00;5.80;;;10.90;1.00;;;;;;5100144;28;20184;-88
2023/07/22 03:52:39;;;;;;;8.73;6.10;;;11.00;1.00;;;;;;5098904;28;20220;-89
2023/07/22 03:55:05;;;;;;;8.07;6.07;;;11.20;1.00;;;;;;5097990;28;20185;-90
2023/07/22 03:57:31;;;;;;;9.47;5.73;;;10.90;1.00;;;;;;5116219;28;20569;-88
2023/07/22 03:59:57;;;;;;;7.93;6.00;;;11.30;1.00;;;;;;5116393;28;20199;-89
2023/07/22 04:02:25;;;;;;;8.57;5.53;;;11.60;1.00;;;;;;5108557;28;20177;-81
2023/07/22 04:04:51;;;;;;;7.07;5.03;;;11.00;1.00;;;;;;5122239;28;20217;-82
2023/07/22 04:07:17;;;;;;;6.50;4.97;;;11.00;1.00;;;;;;5139940;28;20178;-80
2023/07/22 04:09:47;;;;;;;7.77;5.53;;;10.90;1.00;;;;;;5122546;28;20189;-87
2023/07/22 04:12:12;;;;;;;8.13;5.90;;;11.10;1.00;;;;;;5140025;28;20157;-83
2023/07/22 04:14:38;;;;;;;10.50;5.93;;;11.00;1.00;;;;;;5122367;28;20276;-84
2023/07/22 04:17:04;;;;;;;8.40;5.53;;;11.80;1.00;;;;;;5122016;28;20206;-82
2023/07/22 04:19:30;;;;;;;10.07;5.63;;;11.20;1.00;;;;;;5139606;28;20174;-85
2023/07/22 04:21:56;;;;;;;10.40;5.37;;;11.50;1.00;;;;;;5105528;28;20191;-82
2023/07/22 04:24:25;;;;;;;6.83;5.23;;;11.30;1.00;;;;;;5122250;28;20181;-81
2023/07/22 04:26:50;;;;;;;9.57;5.63;;;11.80;1.00;;;;;;5105582;28;20185;-85
2023/07/22 04:29:16;;;;;;;8.33;5.10;;;11.70;1.00;;;;;;5139253;28;20271;-85
2023/07/22 04:31:42;;;;;;;11.03;5.60;;;10.90;1.00;;;;;;5121995;28;20185;-87
2023/07/22 04:34:08;;;;;;;6.50;5.07;;;11.60;1.00;;;;;;5135752;28;20178;-88
2023/07/22 04:36:36;;;;;;;8.63;5.60;;;11.40;1.00;;;;;;5139127;28;20201;-85
2023/07/22 04:39:04;;;;;;;7.20;5.30;;;11.00;1.00;;;;;;5121942;28;20186;-85
2023/07/22 04:41:30;;;;;;;7.07;5.67;;;11.40;1.00;;;;;;5121938;28;20171;-85
2023/07/22 04:43:58;;;;;;;8.10;5.23;;;11.50;1.00;;;;;;5121671;28;20157;-79
2023/07/22 04:46:25;;;;;;;7.10;5.27;;;11.60;1.00;;;;;;5105255;28;20246;-85
2023/07/22 04:48:56;;;;;;;10.63;6.00;;;11.60;1.00;;;;;;5121880;28;20193;-84
2023/07/22 04:51:22;;;;;;;9.40;5.43;;;11.70;1.00;;;;;;5137315;28;20177;-91
2023/07/22 04:53:48;;;;;;;7.07;4.90;;;11.80;1.00;;;;;;5124688;28;20178;-90
2023/07/22 04:56:13;;;;;;;6.83;5.60;;;11.80;1.00;;;;;;5087361;28;20660;-89
2023/07/22 04:58:39;;;;;;;7.67;5.00;;;11.70;1.00;;;;;;5102655;28;20220;-91
2023/07/22 05:01:05;;;;;;;5.80;4.63;;;11.90;1.00;;;;;;5120876;28;20247;-90
2023/07/22 05:03:30;;;;;;;9.27;5.47;;;12.10;1.00;;;;;;5101011;28;20641;-90
2023/07/22 05:05:57;;;;;;;8.90;5.60;;;12.50;1.00;;;;;;5120394;28;20186;-90
2023/07/22 05:08:23;;;;;;;6.87;4.83;;;12.00;1.00;;;;;;5104025;28;20198;-91
2023/07/22 05:10:49;;;;;;;6.07;4.83;;;12.50;1.00;;;;;;5104025;28;20181;-92
2023/07/22 05:13:14;;;;;;;6.10;4.80;;;12.10;1.00;;;;;;5121855;28;20653;-91
2023/07/22 05:15:40;;;;;;;7.10;5.03;;;11.90;1.00;;;;;;5121906;28;20667;-91
2023/07/22 05:18:09;;;;;;;8.00;5.50;;;13.70;1.00;;;;;;5121691;28;20588;-90
2023/07/22 05:20:34;;;;;;;10.07;6.40;;;12.40;1.00;;;;;;5122247;28;20236;-91
2023/07/22 05:23:00;;;;;;;6.77;5.03;;;12.40;5.40;;;;;;5104045;28;20178;-91
2023/07/22 05:25:26;;;;;;;6.77;5.47;;;12.80;4.30;;;;;;5104288;28;20181;-89
2023/07/22 05:27:51;;;;;;;8.93;5.27;;;12.40;1.00;;;;;;5122480;28;20206;-91
2023/07/22 05:30:17;;;;;;;10.60;5.47;;;12.50;1.00;;;;;;5122062;28;20579;-91
2023/07/22 05:32:42;;;;;;;8.17;5.53;;;12.90;1.00;;;;;;5090176;28;20182;-90
2023/07/22 05:35:08;;;;;;;8.97;6.07;;;12.60;1.00;;;;;;5105316;28;20182;-91
2023/07/22 05:37:34;;;;;;;7.97;5.73;;;13.30;2.60;;;;;;5104201;28;20221;-90
2023/07/22 05:40:01;;;;;;;13.33;6.47;;;13.20;12.00;;;;;;5122746;28;20666;-90
2023/07/22 05:42:27;;;;;;;9.27;5.87;;;13.30;12.90;;;;;;5122625;28;20166;-91
2023/07/22 05:44:55;;;;;;;9.53;5.33;;;13.50;4.70;;;;;;5122354;28;20174;-91
2023/07/22 05:47:20;;;;;;;9.87;5.60;;;14.00;1.00;;;;;;5121805;28;20182;-91
2023/07/22 05:49:46;;;;;;;9.23;6.10;;;13.90;1.00;;;;;;5103777;28;20178;-90
2023/07/22 05:52:11;;;;;;;8.00;5.80;;;14.00;1.00;;;;;;5103513;28;20186;-90
2023/07/22 05:54:37;;;;;;;9.20;6.17;;;14.10;1.00;;;;;;5121774;28;20707;-90
2023/07/22 05:57:03;;;;;;;9.37;6.40;;;14.20;1.00;;;;;;5104170;28;20198;-92
2023/07/22 05:59:30;;;;;;;8.57;6.10;;;14.40;1.00;;;;;;5103894;28;20194;-90
2023/07/22 06:01:57;;;;;;;7.90;5.90;;;14.40;1.00;;;;;;5103399;28;20556;-91
2023/07/22 06:04:24;;;;;;;7.40;5.73;;;14.60;1.00;;;;;;5121154;28;20638;-90
2023/07/22 06:06:50;;;;;;;8.63;6.10;;;14.80;1.00;;;;;;5103182;28;20183;-90
2023/07/22 06:09:16;;;;;;;13.50;7.37;;;14.90;1.00;;;;;;5104379;28;20218;-91
2023/07/22 06:11:42;;;;;;;9.57;6.13;;;15.00;1.00;;;;;;5122476;28;20223;-90
2023/07/22 06:14:08;;;;;;;7.70;5.83;;;15.10;1.00;;;;;;5103884;28;20201;-89
2023/07/22 06:16:33;;;;;;;9.63;5.83;;;15.10;1.00;;;;;;5103590;28;20201;-92
2023/07/22 06:19:00;;;;;;;8.43;6.10;;;15.30;1.00;;;;;;5122167;28;20223;-91
2023/07/22 06:21:25;;;;;;;9.47;5.93;;;15.20;1.00;;;;;;5104710;28;20205;-90
2023/07/22 06:23:51;;;;;;;8.03;5.93;;;15.40;1.00;;;;;;5104556;28;20178;-87
2023/07/22 06:26:17;;;;;;;12.97;6.80;;;15.50;1.00;;;;;;5122659;28;20181;-88
2023/07/22 06:28:42;;;;;;;11.67;6.37;;;15.60;1.00;;;;;;5105372;28;20202;-86
2023/07/22 06:31:09;;;;;;;9.50;6.63;;;15.80;1.00;;;;;;5122990;28;20182;-86
2023/07/22 06:33:36;;;;;;;8.67;6.40;;;15.70;1.00;;;;;;5122735;28;20212;-87
2023/07/22 06:36:02;;;;;;;12.23;7.17;;;15.80;1.00;;;;;;5102884;28;20202;-88
2023/07/22 06:38:27;;;;;;;9.37;6.07;;;15.90;1.00;;;;;;5087229;28;20221;-86
2023/07/22 06:40:53;;;;;;;11.33;7.03;;;16.00;1.00;;;;;;5108939;28;20182;-88
2023/07/22 06:43:19;;;;;;;12.30;7.43;;;16.10;1.00;;;;;;5101809;28;20170;-87
2023/07/22 06:45:45;;;;;;;8.73;6.47;;;16.10;1.00;;;;;;5084902;28;20189;-86
2023/07/22 06:48:12;;;;;;;9.90;6.27;;;16.20;1.00;;;;;;5101333;28;20198;-86
2023/07/22 06:50:38;;;;;;;8.27;6.27;;;16.20;1.00;;;;;;5103809;28;20292;-85
2023/07/22 06:53:05;;;;;;;9.37;6.60;;;16.30;1.00;;;;;;5120439;28;20194;-88
2023/07/22 06:55:31;;;;;;;11.50;6.00;;;16.30;1.00;;;;;;5121024;28;20180;-88
2023/07/22 06:57:57;;;;;;;9.60;6.33;;;16.40;1.00;;;;;;5120468;28;20217;-87
2023/07/22 07:00:22;;;;;;;11.57;6.70;;;16.40;1.00;;;;;;5104282;28;20200;-86
2023/07/22 07:02:50;;;;;;;9.40;6.53;;;16.50;1.00;;;;;;5084196;28;20220;-88
2023/07/22 07:05:16;;;;;;;8.73;6.67;;;16.70;1.00;;;;;;5119561;28;20634;-85
2023/07/22 07:07:43;;;;;;;9.87;6.57;;;16.60;1.00;;;;;;5120497;28;20205;-86
2023/07/22 07:10:09;;;;;;;11.47;6.90;;;16.80;1.00;;;;;;5101457;28;20597;-86
2023/07/22 07:12:34;;;;;;;9.80;6.87;;;16.80;1.00;;;;;;5119094;28;20231;-88
2023/07/22 07:15:01;;;;;;;11.17;6.47;;;16.80;1.00;;;;;;5117844;28;20240;-87
2023/07/22 07:17:27;;;;;;;8.83;6.40;;;16.90;1.00;;;;;;5117766;28;20213;-86
2023/07/22 07:19:52;;;;;;;9.87;6.70;;;17.00;1.00;;;;;;5099674;28;20178;-87
2023/07/22 07:22:18;;;;;;;10.63;6.93;;;17.00;1.00;;;;;;5117349;28;20178;-88
2023/07/22 07:24:44;;;;;;;11.27;6.43;;;17.10;99.90;;;;;;5119706;28;20167;-88
2023/07/22 07:27:10;;;;;;;9.50;6.20;;;17.20;99.90;;;;;;5121960;28;20178;-88
2023/07/22 07:29:35;;;;;;;11.27;7.27;;;17.30;99.90;;;;;;5119429;28;20704;-86
2023/07/22 07:32:01;;;;;;;9.50;6.67;;;17.40;99.90;;;;;;5101073;28;20174;-88
2023/07/22 07:34:26;;;;;;;8.90;5.90;;;17.50;99.90;;;;;;5101070;28;20182;-87
2023/07/22 07:36:52;;;;;;;8.00;5.77;;;17.70;99.90;;;;;;5118661;28;20227;-87
2023/07/22 07:39:17;;;;;;;14.47;6.10;;;17.90;1.00;;;;;;5083480;28;20198;-87
2023/07/22 07:41:43;;;;;;;6.70;5.23;;;18.00;99.90;;;;;;5100348;28;20170;-87
2023/07/22 07:44:09;;;;;;;9.23;5.57;;;17.90;99.90;;;;;;5119213;28;20236;-89
2023/07/22 07:46:35;;;;;;;8.20;5.80;;;18.00;1.00;;;;;;5100668;28;20639;-87
2023/07/22 07:49:02;;;;;;;6.93;5.50;;;18.10;1.00;;;;;;5119559;28;20198;-88
2023/07/22 07:51:29;;;;;;;11.37;5.47;;;18.20;99.90;;;;;;5100286;28;20178;-87
2023/07/22 07:53:56;;;;;;;11.73;6.87;;;18.40;1.00;;;;;;5100785;28;20189;-87
2023/07/22 07:56:22;;;;;;;10.43;5.47;;;18.60;1.00;;;;;;5100708;28;20684;-88
2023/07/22 07:58:49;;;;;;;11.17;5.83;;;18.80;99.90;;;;;;5119163;28;20243;-89
2023/07/22 08:01:16;;;;;;;8.10;5.50;;;19.00;1.00;;;;;;5117612;28;20201;-85
2023/07/22 08:03:43;;;;;;;6.83;4.70;;;19.30;1.00;;;;;;5122577;28;20235;-87
2023/07/22 08:06:09;;;;;;;6.43;4.90;;;19.50;99.90;;;;;;5138774;28;20194;-77
2023/07/22 08:08:36;;;;;;;6.60;4.93;;;19.80;1.00;;;;;;5129840;28;20255;-87
2023/07/22 08:11:04;;;;;;;6.57;4.43;;;20.10;99.90;;;;;;5082008;28;20244;-87
2023/07/22 08:13:31;;;;;;;5.20;4.50;;;20.20;99.90;;;;;;5117253;28;20186;-89
2023/07/22 08:15:58;;;;;;;5.33;3.93;;;20.20;99.90;;;;;;5117679;28;20208;-88
2023/07/22 08:18:24;;;;;;;6.80;4.23;;;20.30;99.90;;;;;;5099291;28;20246;-89
2023/07/22 08:20:52;;;;;;;4.53;3.67;;;20.40;1.00;;;;;;5098391;28;20269;-89
2023/07/22 08:23:17;;;;;;;5.63;3.83;;;20.50;1.00;;;;;;5099413;28;20279;-89
2023/07/22 08:25:43;;;;;;;5.13;4.10;;;20.60;90.40;;;;;;5099122;28;20180;-88
2023/07/22 08:28:08;;;;;;;6.17;3.90;;;20.60;99.90;;;;;;5099290;28;20209;-89
2023/07/22 08:30:35;;;;;;;4.80;3.80;;;20.60;1.00;;;;;;5118215;28;20188;-89
2023/07/22 08:33:00;;;;;;;5.70;3.43;;;20.70;68.10;;;;;;5116687;28;20273;-87
2023/07/22 08:35:26;;;;;;;4.13;3.13;;;20.60;99.90;;;;;;5118794;28;20222;-88
2023/07/22 08:38:00;;;;;;;4.43;2.90;;;20.70;1.00;;;;;;5099132;28;20213;-90
2023/07/22 08:40:25;;;;;;;4.07;2.90;;;20.60;1.00;;;;;;5120124;28;20158;-89
2023/07/22 08:42:53;;;;;;;3.90;2.80;;;20.60;66.10;;;;;;5121944;28;20638;-88
2023/07/22 08:45:20;;;;;;;6.27;3.13;;;20.70;99.90;;;;;;5103574;28;20283;-87
2023/07/22 08:47:47;;;;;;;5.33;3.43;;;20.70;30.20;;;;;;5104066;28;20262;-89
2023/07/22 08:50:18;;;;;;;8.03;3.47;;;20.70;99.90;;;;;;5122738;28;20190;-88
2023/07/22 08:52:45;;;;;;;3.90;2.87;;;20.70;1.00;;;;;;5105858;28;20183;-87
2023/07/22 08:55:11;;;;;;;5.43;2.80;;;20.70;99.90;;;;;;5122705;28;20248;-88
2023/07/22 08:57:38;;;;;;;3.97;2.87;;;20.70;99.90;;;;;;5103419;28;20221;-88
2023/07/22 09:00:06;;;;;;;3.83;3.17;;;20.80;1.00;;;;;;5121165;28;20299;-88
2023/07/22 09:02:33;;;;;;;5.97;3.37;;;20.90;1.00;;;;;;5103779;28;20676;-86
2023/07/22 09:04:59;;;;;;;3.50;2.70;;;20.90;99.90;;;;;;5120597;28;20174;-88
2023/07/22 09:07:25;;;;;;;6.57;2.77;;;20.80;99.90;;;;;;5103187;28;20193;-87
2023/07/22 09:09:52;;;;;;;3.53;2.60;;;20.80;99.90;;;;;;5121969;28;20627;-87
2023/07/22 09:12:19;;;;;;;3.33;3.03;;;20.80;1.00;;;;;;5119685;28;20196;-87
2023/07/22 09:14:48;;;;;;;4.07;3.10;;;20.80;99.40;;;;;;5120603;28;20186;-87
2023/07/22 09:17:13;;;;;;;7.33;3.33;;;20.90;1.00;;;;;;5102078;28;20214;-88
2023/07/22 09:19:39;;;;;;;3.63;2.80;;;21.00;99.90;;;;;;5085787;28;20293;-86
2023/07/22 09:22:05;;;;;;;5.37;2.80;;;21.20;1.00;;;;;;5087236;28;20182;-88
2023/07/22 09:24:30;;;;;;;4.00;2.80;;;21.40;1.00;;;;;;5119334;28;20182;-86
2023/07/22 09:26:58;;;;;;;4.57;2.77;;;21.50;1.00;;;;;;5102734;28;20186;-88
2023/07/22 09:29:44;;;;;;;4.40;2.53;;;21.80;1.00;;;;;;5121433;28;20257;-87
2023/07/22 09:32:10;;;;;;;5.33;2.70;;;21.80;1.00;;;;;;5124006;28;20158;-89
2023/07/22 09:34:35;;;;;;;5.77;2.30;;;21.90;1.00;;;;;;5122390;28;20181;-88
2023/07/22 09:37:03;;;;;;;3.77;2.67;;;22.00;99.90;;;;;;5121530;28;20202;-89
2023/07/22 09:39:29;;;;;;;2.87;2.13;;;22.00;1.00;;;;;;5120501;28;20186;-88
2023/07/22 09:41:55;;;;;;;3.47;2.50;;;21.90;99.90;;;;;;5086281;28;20277;-89
2023/07/22 09:44:37;;;;;;;4.53;2.10;;;21.90;1.00;;;;;;5121134;28;20182;-89
2023/07/22 09:47:09;;;;;;;4.73;2.27;;;21.90;99.90;;;;;;5101794;28;20170;-87
2023/07/22 09:49:41;;;;;;;4.47;2.10;;;22.00;1.00;;;;;;5102380;28;20202;-88
2023/07/22 09:52:12;;;;;;;3.17;2.20;;;22.00;1.00;;;;;;5101947;28;20182;-88
2023/07/22 09:54:47;;;;;;;3.47;2.40;;;22.00;34.10;;;;;;5103951;28;20249;-90
2023/07/22 09:57:13;;;;;;;3.83;2.17;;;21.90;99.90;;;;;;5121005;28;20185;-90
2023/07/22 09:59:39;;;;;;;3.67;2.13;;;21.70;99.90;;;;;;5102767;28;20736;-87
2023/07/22 10:02:07;;;;;;;2.90;2.10;;;21.70;99.90;;;;;;5102875;28;20178;-88
2023/07/22 10:04:35;;;;;;;3.93;2.00;;;21.70;99.90;;;;;;5102694;28;20182;-89
2023/07/22 10:07:05;;;;;;;4.13;2.00;;;21.60;99.90;;;;;;5121407;28;20657;-88
2023/07/22 10:09:32;;;;;;;2.57;2.10;;;21.60;82.10;;;;;;5104038;28;20202;-90
2023/07/22 10:11:58;;;;;;;2.20;1.93;;;21.60;1.00;;;;;;5105719;28;20188;-90
2023/07/22 10:14:24;;;;;;;4.17;2.30;;;21.60;97.60;;;;;;5120339;28;20186;-89
2023/07/22 10:16:52;;;;;;;2.80;2.13;;;21.60;99.90;;;;;;5135550;28;20210;-89
2023/07/22 10:19:18;;;;;;;1.93;1.70;;;21.70;1.00;;;;;;5121020;28;20202;-90
2023/07/22 10:21:44;;;;;;;3.10;2.30;;;21.70;1.00;;;;;;5101177;28;20189;-89
2023/07/22 10:24:10;;;;;;;3.20;1.93;;;21.90;99.90;;;;;;5101156;28;20208;-89
2023/07/22 10:26:37;;;;;;;1.97;1.77;;;22.00;99.90;;;;;;5101729;28;20206;-89
2023/07/22 10:29:04;;;;;;;2.83;2.17;;;22.10;1.00;;;;;;5102238;28;20284;-90
2023/07/22 10:31:32;;;;;;;4.03;2.27;;;22.20;1.00;;;;;;5101632;28;20174;-89
2023/07/22 10:33:58;;;;;;;4.93;2.27;;;22.40;1.00;;;;;;5119432;28;20705;-87
2023/07/22 10:36:29;;;;;;;4.10;2.10;;;22.50;1.00;;;;;;5101000;28;20182;-90
2023/07/22 10:38:57;;;;;;;3.43;2.00;;;22.70;1.00;;;;;;5101832;28;20715;-88
2023/07/22 10:41:22;;;;;;;3.77;2.00;;;22.90;1.00;;;;;;5120372;28;20170;-90
2023/07/22 10:43:57;;;;;;;3.53;2.40;;;23.00;99.90;;;;;;5084638;28;20178;-89
2023/07/22 10:46:35;;;;;;;2.90;2.00;;;23.10;99.90;;;;;;5119866;28;20227;-89
2023/07/22 10:49:15;;;;;;;2.50;2.30;;;23.10;99.90;;;;;;5101019;28;20189;-89
2023/07/22 10:51:46;;;;;;;4.13;2.57;;;23.10;99.90;;;;;;5120797;28;20178;-88
2023/07/22 10:54:13;;;;;;;4.30;2.57;;;23.10;99.90;;;;;;5118722;28;20190;-90
2023/07/22 10:56:42;;;;;;;2.50;2.03;;;23.20;1.00;;;;;;5118559;28;20206;-89
2023/07/22 10:59:11;;;;;;;2.50;2.17;;;23.40;99.90;;;;;;5099715;28;20276;-87
2023/07/22 11:01:38;;;;;;;4.43;2.13;;;23.50;99.90;;;;;;5121134;28;20717;-88
2023/07/22 11:04:14;;;;;;;3.03;2.03;;;23.70;99.90;;;;;;5101089;28;20174;-90
2023/07/22 11:06:48;;;;;;;2.80;2.50;;;24.00;99.90;;;;;;5100766;28;20730;-90
2023/07/22 11:12:13;;;;;;;3.20;2.50;;;24.00;99.90;;;;;;5119276;28;20556;-89
2023/07/22 11:15:01;;;;;;;4.27;2.40;;;24.00;99.90;;;;;;5101863;28;20185;-89
2023/07/22 11:17:32;;;;;;;5.50;2.40;;;24.10;99.90;;;;;;5096287;28;20221;-89
2023/07/22 11:19:59;;;;;;;2.90;2.60;;;24.20;99.90;;;;;;5084329;28;20265;-91
2023/07/22 11:22:25;;;;;;;2.80;2.30;;;24.30;99.90;;;;;;5120118;28;20212;-89
2023/07/22 11:24:52;;;;;;;2.77;2.40;;;24.30;99.90;;;;;;5100624;28;20182;-90
2023/07/22 11:27:18;;;;;;;2.80;2.30;;;24.30;99.90;;;;;;5102142;28;20178;-90
2023/07/22 11:29:44;;;;;;;3.03;2.07;;;24.40;99.90;;;;;;5102059;28;20269;-90
2023/07/22 11:32:17;;;;;;;2.87;2.00;;;24.50;99.90;;;;;;5100778;28;20201;-88
2023/07/22 11:34:47;;;;;;;2.90;2.30;;;24.50;99.90;;;;;;5119527;28;20202;-88
2023/07/22 11:37:14;;;;;;;3.53;2.40;;;24.60;99.90;;;;;;5120560;28;20189;-89
2023/07/22 11:39:42;;;;;;;4.10;2.27;;;24.80;99.90;;;;;;5100817;28;20199;-90
2023/07/22 11:42:08;;;;;;;2.70;2.03;;;25.00;99.90;;;;;;5100599;28;20185;-88
2023/07/22 11:44:33;;;;;;;4.37;2.00;;;25.00;99.90;;;;;;5116887;28;20557;-89
2023/07/22 11:47:09;;;;;;;2.27;1.80;;;25.00;67.80;;;;;;5101335;28;20178;-89
2023/07/22 11:49:40;;;;;;;2.17;1.90;;;25.00;1.00;;;;;;5098865;28;20198;-89
2023/07/22 11:52:10;;;;;;;2.37;1.77;;;25.00;1.00;;;;;;5120089;28;20221;-89
2023/07/22 11:54:39;;;;;;;2.03;1.83;;;25.10;1.00;;;;;;5083789;28;20565;-87
2023/07/22 11:57:15;;;;;;;2.70;2.00;;;25.10;1.00;;;;;;5108858;28;20209;-88
2023/07/22 11:59:59;;;;;;;2.53;2.03;;;25.30;1.00;;;;;;5107287;28;20297;-88
2023/07/22 12:02:26;;;;;;;2.77;1.60;;;25.50;1.00;;;;;;5100372;28;20205;-87
2023/07/22 12:05:00;;;;;;;2.00;1.70;;;25.60;1.00;;;;;;5100283;28;20184;-89
2023/07/22 12:07:29;;;;;;;2.13;1.93;;;25.70;1.00;;;;;;5098410;28;20182;-89
2023/07/22 12:09:58;;;;;;;3.13;1.80;;;25.80;1.00;;;;;;5099337;28;20186;-89
2023/07/22 12:12:47;;;;;;;3.00;1.70;;;25.60;1.00;;;;;;5098207;28;20187;-89
2023/07/22 12:15:18;;;;;;;2.10;1.90;;;25.70;1.00;;;;;;5098059;28;20181;-89
2023/07/22 12:17:57;;;;;;;2.50;1.60;;;25.80;1.00;;;;;;5099299;28;20225;-89
2023/07/22 12:20:25;;;;;;;4.20;2.23;;;26.00;1.00;;;;;;5116526;28;20178;-87
2023/07/22 12:22:51;;;;;;;4.07;1.95;;;26.10;1.00;;;;;;5099626;28;20178;-85
2023/07/22 12:25:17;;;;;;;2.25;2.00;;;26.10;1.00;;;;;;5118086;28;20212;-89
2023/07/22 12:27:44;;;;;;;2.70;2.15;;;26.00;1.00;;;;;;5118603;28;20201;-88
2023/07/22 12:30:10;;;;;;;2.75;2.13;;;26.00;1.00;;;;;;5117448;28;20208;-88
2023/07/22 12:32:36;;;;;;;2.00;1.70;;;26.00;1.00;;;;;;5098759;28;20174;-89
2023/07/22 12:35:03;;;;;;;4.32;2.20;;;26.00;1.00;;;;;;5099969;28;20196;-89
2023/07/22 12:37:29;;;;;;;2.60;2.20;;;26.00;1.00;;;;;;5099529;28;20226;-87
2023/07/22 12:39:54;;;;;;;9.23;2.00;;;26.00;1.00;;;;;;5099056;28;20665;-90
2023/07/22 12:42:20;;;;;;;3.97;2.20;;;26.10;1.00;;;;;;5098801;28;20308;-89
2023/07/22 12:44:46;;;;;;;3.42;2.00;;;26.30;1.00;;;;;;5099359;28;20178;-88
2023/07/22 12:47:14;;;;;;;18.83;2.53;;;26.40;1.00;;;;;;5100454;28;20626;-89
2023/07/22 12:49:39;;;;;;;4.13;2.05;;;26.50;1.00;;;;;;5118648;28;20228;-89
2023/07/22 12:52:08;;;;;;;2.10;1.90;;;26.40;1.00;;;;;;5116599;28;20183;-87
2023/07/22 12:54:35;;;;;;;4.00;2.10;;;26.50;1.00;;;;;;5099078;28;20213;-89
2023/07/22 12:57:00;;;;;;;4.35;2.15;;;26.50;1.00;;;;;;5100205;28;20205;-89
2023/07/22 12:59:26;;;;;;;2.90;2.40;;;26.60;1.00;;;;;;5099558;28;20198;-88